createdAt,value
2022-08-31T00:00:08.515Z,1.60
2022-08-31T00:02:53.335Z,1.90
2022-08-31T00:05:19.679Z,1.93
2022-08-31T00:07:46.054Z,2.30
2022-08-31T00:10:14.869Z,2.37
2022-08-31T00:12:42.887Z,1.93
2022-08-31T00:15:10.770Z,2.17
2022-08-31T00:17:37.732Z,1.87
2022-08-31T00:20:06.758Z,2.03
2022-08-31T00:22:33.358Z,1.87
2022-08-31T00:24:59.660Z,2.53
2022-08-31T00:27:26.093Z,2.40
2022-08-31T00:29:52.477Z,1.40
2022-08-31T00:32:21.384Z,1.90
2022-08-31T00:34:49.401Z,1.97
2022-08-31T00:37:15.769Z,1.90
2022-08-31T00:39:42.095Z,2.20
2022-08-31T00:42:08.803Z,2.13
2022-08-31T00:44:35.278Z,1.50
2022-08-31T00:47:02.064Z,1.83
2022-08-31T00:49:29.934Z,2.13
2022-08-31T00:52:08.273Z,1.60
2022-08-31T00:54:49.472Z,1.57
2022-08-31T00:57:16.479Z,1.70
2022-08-31T00:59:48.529Z,1.77
2022-08-31T01:02:15.329Z,1.63
2022-08-31T01:04:41.980Z,2.10
2022-08-31T01:07:09.229Z,2.00
2022-08-31T01:09:38.859Z,1.53
2022-08-31T01:12:08.949Z,2.00
2022-08-31T01:14:39.421Z,1.87
2022-08-31T01:17:07.005Z,2.03
2022-08-31T01:19:38.526Z,1.50
2022-08-31T01:22:16.411Z,1.63
2022-08-31T01:24:46.142Z,1.70
2022-08-31T01:27:15.104Z,2.10
2022-08-31T01:29:41.602Z,2.53
2022-08-31T01:32:08.349Z,2.33
2022-08-31T01:34:34.978Z,2.20
2022-08-31T01:37:01.663Z,2.13
2022-08-31T01:39:28.250Z,2.03
2022-08-31T01:41:54.955Z,2.13
2022-08-31T01:44:26.592Z,1.80
2022-08-31T01:46:53.300Z,1.90
2022-08-31T01:49:21.775Z,2.00
2022-08-31T01:51:50.428Z,2.23
2022-08-31T01:54:17.874Z,2.67
2022-08-31T01:56:46.741Z,1.77
2022-08-31T01:59:20.669Z,2.07
2022-08-31T02:01:56.717Z,2.17
2022-08-31T02:04:26.308Z,2.37
2022-08-31T02:06:57.268Z,2.20
2022-08-31T02:09:24.236Z,2.17
2022-08-31T02:11:51.304Z,2.17
2022-08-31T02:14:18.622Z,2.50
2022-08-31T02:16:45.477Z,1.93
2022-08-31T02:19:12.098Z,2.17
2022-08-31T02:21:39.898Z,2.53
2022-08-31T02:24:08.318Z,2.53
2022-08-31T02:26:34.873Z,2.10
2022-08-31T02:29:03.269Z,1.90
2022-08-31T02:31:29.950Z,1.80
2022-08-31T02:33:59.844Z,2.03
2022-08-31T02:36:26.368Z,2.60
2022-08-31T02:38:53.252Z,2.63
2022-08-31T02:41:20.336Z,2.60
2022-08-31T02:43:48.083Z,2.13
2022-08-31T02:46:15.085Z,2.03
2022-08-31T02:48:52.901Z,2.30
2022-08-31T02:51:20.598Z,2.10
2022-08-31T02:53:47.347Z,2.10
2022-08-31T02:56:14.069Z,2.63
2022-08-31T02:58:41.212Z,2.27
2022-08-31T03:01:07.866Z,2.43
2022-08-31T03:03:35.129Z,2.47
2022-08-31T03:06:02.035Z,2.83
2022-08-31T03:08:28.883Z,2.43
2022-08-31T03:10:57.845Z,2.80
2022-08-31T03:13:24.420Z,1.80
2022-08-31T03:15:51.994Z,2.73
2022-08-31T03:18:18.471Z,2.57
2022-08-31T03:20:44.861Z,2.50
2022-08-31T03:23:12.210Z,2.03
2022-08-31T03:25:39.565Z,1.80
2022-08-31T03:28:06.871Z,2.43
2022-08-31T03:30:35.959Z,2.17
2022-08-31T03:33:06.916Z,2.00
2022-08-31T03:35:34.569Z,2.90
2022-08-31T03:38:02.581Z,2.27
2022-08-31T03:40:30.159Z,2.53
2022-08-31T03:42:58.770Z,1.90
2022-08-31T03:45:27.695Z,2.67
2022-08-31T03:47:54.369Z,2.20
2022-08-31T03:50:22.991Z,2.10
2022-08-31T03:53:04.214Z,2.23
2022-08-31T03:55:32.186Z,2.00
2022-08-31T03:57:59.018Z,2.53
2022-08-31T04:00:25.591Z,2.17
2022-08-31T04:03:00.299Z,2.00
2022-08-31T04:05:32.658Z,2.27
2022-08-31T04:08:19.577Z,2.50
2022-08-31T04:11:12.040Z,2.23
2022-08-31T04:13:57.139Z,2.10
2022-08-31T04:16:43.635Z,2.07
2022-08-31T04:19:31.326Z,2.33
2022-08-31T04:22:08.470Z,2.40
2022-08-31T04:24:40.544Z,1.83
2022-08-31T04:27:06.979Z,2.10
2022-08-31T04:29:33.365Z,1.97
2022-08-31T04:31:59.890Z,2.03
2022-08-31T04:34:26.421Z,2.50
2022-08-31T04:36:52.950Z,1.97
2022-08-31T04:39:20.890Z,1.80
2022-08-31T04:41:50.625Z,2.20
2022-08-31T04:44:19.952Z,2.40
2022-08-31T04:46:51.146Z,2.00
2022-08-31T04:49:17.781Z,1.93
2022-08-31T04:51:45.573Z,1.60
2022-08-31T04:54:13.944Z,2.20
2022-08-31T04:56:44.893Z,2.20
2022-08-31T04:59:15.233Z,2.20
2022-08-31T05:01:58.935Z,2.83
2022-08-31T05:04:41.129Z,2.23
2022-08-31T05:07:07.505Z,2.13
2022-08-31T05:09:34.125Z,2.17
2022-08-31T05:12:00.896Z,2.60
2022-08-31T05:14:28.020Z,2.17
2022-08-31T05:17:06.244Z,2.33
2022-08-31T05:19:41.227Z,1.67
2022-08-31T05:22:07.761Z,2.20
2022-08-31T05:24:37.156Z,1.60
2022-08-31T05:27:03.689Z,1.53
2022-08-31T05:29:30.069Z,2.00
2022-08-31T05:32:31.662Z,1.80
2022-08-31T05:35:01.287Z,1.73
2022-08-31T05:37:28.221Z,2.20
2022-08-31T05:39:54.810Z,2.30
2022-08-31T05:42:21.500Z,2.27
2022-08-31T05:44:48.007Z,2.03
2022-08-31T05:47:15.582Z,2.40
2022-08-31T05:49:43.544Z,2.50
2022-08-31T05:52:13.829Z,1.97
2022-08-31T05:54:40.953Z,1.87
2022-08-31T05:57:07.790Z,2.10
2022-08-31T05:59:35.237Z,2.53
2022-08-31T06:02:03.045Z,2.00
2022-08-31T06:04:32.890Z,2.03
2022-08-31T06:06:59.330Z,2.10
2022-08-31T06:09:30.805Z,2.53
2022-08-31T06:11:57.214Z,2.80
2022-08-31T06:14:23.834Z,2.43
2022-08-31T06:16:50.881Z,2.83
2022-08-31T06:19:19.290Z,2.27
2022-08-31T06:21:49.782Z,1.73
2022-08-31T06:24:20.368Z,2.43
2022-08-31T06:26:57.856Z,2.63
2022-08-31T06:29:31.144Z,1.83
2022-08-31T06:32:00.181Z,2.20
2022-08-31T06:34:28.955Z,1.93
2022-08-31T06:37:18.544Z,2.53
2022-08-31T06:40:00.637Z,2.27
2022-08-31T06:42:38.519Z,1.80
2022-08-31T06:45:11.774Z,2.10
2022-08-31T06:47:42.127Z,2.20
2022-08-31T06:50:10.148Z,2.10
2022-08-31T06:52:38.969Z,2.07
2022-08-31T06:55:19.105Z,2.07
2022-08-31T06:58:23.689Z,2.50
2022-08-31T07:01:13.506Z,2.70
2022-08-31T07:04:00.693Z,2.00
2022-08-31T07:06:35.989Z,2.43
2022-08-31T07:09:05.236Z,1.60
2022-08-31T07:11:38.166Z,2.17
2022-08-31T07:14:09.053Z,1.87
2022-08-31T07:16:38.462Z,2.37
2022-08-31T07:19:06.313Z,1.93
2022-08-31T07:21:39.805Z,1.87
2022-08-31T07:24:06.644Z,2.20
2022-08-31T07:26:44.000Z,2.43
2022-08-31T07:29:14.821Z,1.80
2022-08-31T07:31:46.345Z,2.20
2022-08-31T07:34:21.638Z,2.47
2022-08-31T07:37:23.909Z,2.00
2022-08-31T07:40:10.210Z,2.33
2022-08-31T07:42:40.321Z,2.20
2022-08-31T07:45:12.051Z,2.33
2022-08-31T07:47:45.873Z,2.57
2022-08-31T07:50:16.122Z,2.40
2022-08-31T07:53:11.338Z,2.70
2022-08-31T07:55:47.735Z,2.40
2022-08-31T07:58:39.572Z,2.33
2022-08-31T08:01:06.888Z,3.03
2022-08-31T08:03:33.620Z,2.20
2022-08-31T08:06:19.605Z,2.03
2022-08-31T08:09:22.172Z,1.87
2022-08-31T08:12:20.203Z,2.37
2022-08-31T08:15:21.637Z,1.60
2022-08-31T08:18:05.560Z,1.73
2022-08-31T08:20:39.824Z,1.87
2022-08-31T08:23:13.715Z,1.73
2022-08-31T08:26:08.997Z,2.37
2022-08-31T08:29:05.408Z,1.90
2022-08-31T08:31:33.393Z,2.80
2022-08-31T08:33:59.976Z,2.60
2022-08-31T08:36:26.426Z,2.30
2022-08-31T08:38:54.030Z,2.23
2022-08-31T08:41:25.187Z,2.47
2022-08-31T08:44:00.539Z,2.47
2022-08-31T08:46:49.501Z,2.73
2022-08-31T08:49:43.775Z,2.83
2022-08-31T08:52:14.689Z,2.70
2022-08-31T08:54:43.502Z,2.20
2022-08-31T08:57:15.013Z,1.80
2022-08-31T08:59:43.711Z,3.10
2022-08-31T09:02:34.942Z,2.00
2022-08-31T09:05:39.308Z,2.23
2022-08-31T09:08:55.023Z,2.90
2022-08-31T09:11:58.915Z,2.80
2022-08-31T09:14:47.556Z,2.23
2022-08-31T09:17:43.476Z,2.27
2022-08-31T09:20:12.947Z,2.40
2022-08-31T09:22:47.002Z,2.20
2022-08-31T09:25:19.809Z,2.20
2022-08-31T09:28:16.312Z,2.63
2022-08-31T09:30:45.778Z,2.27
2022-08-31T09:33:24.332Z,2.17
2022-08-31T09:35:58.549Z,2.50
2022-08-31T09:38:40.105Z,2.80
2022-08-31T09:41:29.389Z,2.47
2022-08-31T09:44:17.796Z,2.50
2022-08-31T09:46:51.047Z,2.50
2022-08-31T09:49:25.381Z,2.33
2022-08-31T09:51:52.143Z,3.03
2022-08-31T09:54:46.614Z,2.53
2022-08-31T09:57:13.804Z,2.67
2022-08-31T09:59:47.734Z,2.53
2022-08-31T10:02:26.061Z,2.33
2022-08-31T10:04:54.352Z,2.50
2022-08-31T10:07:43.117Z,2.50
2022-08-31T10:10:28.410Z,2.33
2022-08-31T10:13:22.743Z,2.67
2022-08-31T10:15:52.841Z,2.20
2022-08-31T10:18:39.362Z,2.30
2022-08-31T10:21:11.143Z,2.70
2022-08-31T10:23:54.370Z,3.50
2022-08-31T10:26:31.487Z,3.33
2022-08-31T10:28:59.366Z,3.40
2022-08-31T10:31:31.735Z,2.27
2022-08-31T10:34:22.248Z,2.50
2022-08-31T10:36:54.362Z,2.87
2022-08-31T10:39:32.544Z,2.57
2022-08-31T10:42:05.318Z,2.70
2022-08-31T10:44:42.098Z,2.60
2022-08-31T10:47:17.886Z,2.43
2022-08-31T10:50:00.001Z,2.60
2022-08-31T10:52:32.274Z,2.97
2022-08-31T10:55:28.898Z,3.63
2022-08-31T10:58:07.504Z,3.03
2022-08-31T11:00:45.600Z,3.00
2022-08-31T11:03:27.631Z,3.40
2022-08-31T11:06:00.915Z,2.80
2022-08-31T11:08:54.961Z,3.83
2022-08-31T11:11:35.743Z,2.60
2022-08-31T11:14:33.886Z,2.13
2022-08-31T11:17:18.887Z,2.50
2022-08-31T11:20:05.695Z,2.77
2022-08-31T11:22:50.500Z,2.80
2022-08-31T11:25:28.825Z,2.87
2022-08-31T11:27:59.031Z,3.17
2022-08-31T11:30:29.670Z,3.50
2022-08-31T11:33:00.779Z,3.13
2022-08-31T11:35:46.336Z,2.90
2022-08-31T11:38:40.068Z,3.07
2022-08-31T11:41:11.031Z,2.77
2022-08-31T11:43:37.319Z,4.27
2022-08-31T11:46:26.788Z,2.80
2022-08-31T11:48:53.848Z,3.47
2022-08-31T11:51:42.889Z,3.27
2022-08-31T11:54:14.276Z,2.83
2022-08-31T11:56:44.353Z,3.10
2022-08-31T11:59:19.811Z,3.30
2022-08-31T12:01:46.105Z,3.00
2022-08-31T12:04:41.919Z,3.17
2022-08-31T12:07:10.991Z,3.10
2022-08-31T12:10:14.457Z,3.10
2022-08-31T12:12:52.289Z,2.90
2022-08-31T12:15:21.384Z,3.47
2022-08-31T12:18:11.084Z,2.97
2022-08-31T12:21:19.826Z,3.30
2022-08-31T12:23:58.120Z,2.87
2022-08-31T12:26:45.617Z,2.80
2022-08-31T12:29:26.005Z,2.53
2022-08-31T12:32:29.841Z,2.90
2022-08-31T12:34:59.702Z,3.00
2022-08-31T12:37:30.315Z,3.20
2022-08-31T12:40:20.290Z,3.07
2022-08-31T12:43:25.761Z,2.50
2022-08-31T12:46:00.963Z,2.53
2022-08-31T12:48:42.878Z,3.30
2022-08-31T12:51:12.696Z,3.20
2022-08-31T12:53:51.234Z,2.83
2022-08-31T12:56:23.584Z,2.93
2022-08-31T12:59:08.097Z,2.77
2022-08-31T13:01:41.703Z,2.93
2022-08-31T13:04:10.108Z,2.97
2022-08-31T13:06:40.540Z,2.93
2022-08-31T13:09:07.377Z,2.50
2022-08-31T13:11:41.076Z,2.90
2022-08-31T13:14:12.934Z,2.40
2022-08-31T13:16:42.567Z,2.43
2022-08-31T13:19:16.807Z,2.60
2022-08-31T13:21:49.569Z,2.77
2022-08-31T13:24:15.856Z,2.20
2022-08-31T13:26:43.733Z,2.23
2022-08-31T13:29:13.691Z,2.13
2022-08-31T13:31:48.508Z,2.27
2022-08-31T13:34:15.087Z,2.63
2022-08-31T13:36:53.157Z,2.77
2022-08-31T13:39:29.530Z,2.57
2022-08-31T13:41:57.672Z,2.90
2022-08-31T13:44:33.632Z,1.93
2022-08-31T13:47:03.703Z,2.70
2022-08-31T13:49:35.429Z,2.20
2022-08-31T13:52:13.783Z,2.37
2022-08-31T13:54:40.273Z,2.30
2022-08-31T13:57:34.880Z,2.43
2022-08-31T14:00:23.339Z,2.10
2022-08-31T14:02:49.774Z,2.20
2022-08-31T14:05:36.108Z,1.80
2022-08-31T14:08:03.885Z,1.70
2022-08-31T14:10:37.021Z,1.90
2022-08-31T14:13:15.374Z,2.00
2022-08-31T14:15:52.270Z,2.17
2022-08-31T14:18:34.832Z,2.20
2022-08-31T14:21:20.739Z,2.20
2022-08-31T14:23:51.883Z,2.43
2022-08-31T14:26:22.740Z,2.20
2022-08-31T14:28:53.143Z,2.37
2022-08-31T14:31:27.091Z,2.17
2022-08-31T14:34:07.000Z,2.23
2022-08-31T14:36:50.200Z,1.80
2022-08-31T14:39:16.527Z,1.87
2022-08-31T14:41:44.259Z,2.07
2022-08-31T14:44:13.361Z,2.30
2022-08-31T14:46:41.114Z,1.80
2022-08-31T14:49:09.321Z,1.67
2022-08-31T14:51:39.003Z,2.10
2022-08-31T14:54:08.743Z,1.80
2022-08-31T14:56:43.414Z,2.03
2022-08-31T14:59:12.357Z,2.00
2022-08-31T15:01:40.155Z,1.80
2022-08-31T15:04:06.563Z,1.67
2022-08-31T15:06:33.423Z,1.63
2022-08-31T15:09:04.611Z,1.80
2022-08-31T15:11:36.879Z,2.23
2022-08-31T15:14:05.265Z,1.57
2022-08-31T15:16:32.072Z,1.73
2022-08-31T15:18:59.533Z,1.50
2022-08-31T15:21:26.482Z,1.97
2022-08-31T15:23:52.869Z,1.87
2022-08-31T15:26:21.377Z,2.03
2022-08-31T15:28:52.647Z,2.00
2022-08-31T15:31:21.795Z,1.60
2022-08-31T15:33:49.392Z,1.80
2022-08-31T15:36:18.314Z,1.63
2022-08-31T15:38:45.375Z,1.53
2022-08-31T15:41:12.272Z,1.83
2022-08-31T15:43:41.373Z,1.73
2022-08-31T15:46:13.272Z,1.83
2022-08-31T15:48:44.894Z,1.60
2022-08-31T15:51:23.529Z,2.90
2022-08-31T15:54:06.469Z,1.80
2022-08-31T15:56:41.024Z,1.77
2022-08-31T15:59:10.118Z,1.43
2022-08-31T16:01:37.594Z,1.30
2022-08-31T16:04:06.428Z,1.60
2022-08-31T16:06:34.896Z,1.53
2022-08-31T16:09:02.198Z,1.50
2022-08-31T16:11:32.112Z,1.80
2022-08-31T16:13:59.971Z,1.70
2022-08-31T16:16:32.041Z,1.60
2022-08-31T16:18:59.084Z,1.50
2022-08-31T16:21:27.122Z,1.70
2022-08-31T16:24:00.809Z,1.50
2022-08-31T16:26:32.748Z,1.70
2022-08-31T16:28:59.734Z,1.43
2022-08-31T16:31:26.823Z,1.87
2022-08-31T16:33:56.287Z,1.73
2022-08-31T16:36:24.291Z,2.43
2022-08-31T16:38:54.537Z,1.47
2022-08-31T16:41:30.540Z,1.63
2022-08-31T16:44:18.975Z,1.57
2022-08-31T16:46:45.619Z,1.43
2022-08-31T16:49:30.890Z,1.53
2022-08-31T16:51:58.334Z,1.90
2022-08-31T16:54:28.468Z,1.70
2022-08-31T16:56:57.747Z,1.23
2022-08-31T16:59:28.830Z,1.70
2022-08-31T17:01:56.344Z,1.40
2022-08-31T17:04:48.163Z,1.63
2022-08-31T17:07:12.130Z,1.43
2022-08-31T17:09:38.969Z,1.30
2022-08-31T17:12:07.715Z,1.50
2022-08-31T17:14:43.333Z,1.50
2022-08-31T17:17:12.158Z,1.30
2022-08-31T17:19:40.923Z,1.43
2022-08-31T17:22:09.510Z,1.60
2022-08-31T17:24:38.574Z,1.60
2022-08-31T17:27:09.557Z,1.47
2022-08-31T17:29:39.505Z,1.27
2022-08-31T17:32:11.528Z,1.40
2022-08-31T17:34:39.380Z,1.13
2022-08-31T17:37:16.564Z,1.27
2022-08-31T17:39:44.942Z,1.30
2022-08-31T17:42:15.229Z,1.40
2022-08-31T17:44:44.537Z,1.60
2022-08-31T17:47:11.205Z,1.40
2022-08-31T17:49:42.114Z,1.43
2022-08-31T17:52:11.125Z,1.37
2022-08-31T17:54:42.027Z,1.57
2022-08-31T17:57:12.022Z,1.53
2022-08-31T17:59:39.739Z,1.23
2022-08-31T18:02:11.871Z,1.67
2022-08-31T18:04:39.287Z,1.40
2022-08-31T18:07:07.195Z,1.50
2022-08-31T18:09:37.721Z,1.37
2022-08-31T18:12:06.266Z,1.37
2022-08-31T18:14:34.725Z,1.63
2022-08-31T18:17:01.975Z,1.30
2022-08-31T18:19:29.405Z,1.13
2022-08-31T18:21:56.883Z,1.33
2022-08-31T18:24:23.449Z,1.20
2022-08-31T18:26:52.215Z,1.30
2022-08-31T18:29:24.354Z,1.20
2022-08-31T18:31:53.998Z,1.37
2022-08-31T18:34:23.642Z,1.30
2022-08-31T18:36:53.303Z,1.40
2022-08-31T18:39:47.645Z,1.47
2022-08-31T18:42:27.629Z,1.07
2022-08-31T18:45:12.859Z,1.00
2022-08-31T18:47:39.507Z,1.10
2022-08-31T18:50:06.190Z,0.90
2022-08-31T18:52:32.710Z,1.00
2022-08-31T18:54:59.381Z,0.93
2022-08-31T18:57:28.111Z,1.13
2022-08-31T18:59:55.372Z,1.00
2022-08-31T19:02:23.133Z,1.57
2022-08-31T19:04:52.702Z,1.40
2022-08-31T19:07:21.137Z,1.27
2022-08-31T19:09:52.389Z,1.37
2022-08-31T19:12:22.189Z,1.20
2022-08-31T19:14:55.663Z,1.10
2022-08-31T19:17:22.818Z,1.30
2022-08-31T19:19:49.845Z,1.00
2022-08-31T19:22:18.671Z,1.27
2022-08-31T19:24:46.208Z,1.40
2022-08-31T19:27:14.168Z,1.50
2022-08-31T19:29:41.131Z,1.30
2022-08-31T19:32:08.969Z,1.10
2022-08-31T19:34:39.087Z,1.63
2022-08-31T19:37:07.835Z,1.50
2022-08-31T19:39:37.261Z,1.00
2022-08-31T19:42:09.493Z,0.97
2022-08-31T19:44:55.858Z,1.10
2022-08-31T19:47:28.773Z,1.20
2022-08-31T19:49:55.974Z,1.10
2022-08-31T19:52:24.612Z,1.27
2022-08-31T19:54:51.901Z,1.50
2022-08-31T19:57:19.448Z,1.47
2022-08-31T19:59:45.974Z,1.37
2022-08-31T20:02:14.111Z,0.90
2022-08-31T20:04:41.736Z,1.37
2022-08-31T20:07:08.580Z,1.23
2022-08-31T20:09:35.811Z,1.17
2022-08-31T20:12:03.409Z,1.20
2022-08-31T20:14:31.509Z,1.37
2022-08-31T20:16:59.528Z,1.20
2022-08-31T20:19:28.219Z,1.20
2022-08-31T20:21:59.969Z,1.93
2022-08-31T20:24:28.178Z,1.00
2022-08-31T20:26:58.755Z,1.37
2022-08-31T20:29:25.719Z,1.00
2022-08-31T20:31:55.359Z,1.10
2022-08-31T20:34:24.326Z,1.40
2022-08-31T20:36:52.319Z,1.20
2022-08-31T20:39:19.835Z,1.20
2022-08-31T20:41:49.639Z,1.00
2022-08-31T20:44:19.276Z,1.73
2022-08-31T20:47:10.751Z,1.20
2022-08-31T20:49:41.105Z,1.20
2022-08-31T20:52:10.631Z,1.50
2022-08-31T20:54:37.191Z,1.20
2022-08-31T20:57:06.389Z,1.30
2022-08-31T20:59:34.427Z,0.90
2022-08-31T21:02:03.319Z,1.70
2022-08-31T21:04:31.765Z,1.50
2022-08-31T21:06:58.874Z,1.70
2022-08-31T21:09:26.965Z,1.23
2022-08-31T21:11:54.847Z,1.57
2022-08-31T21:14:21.726Z,1.60
2022-08-31T21:16:48.671Z,1.30
2022-08-31T21:19:18.460Z,1.70
2022-08-31T21:21:46.173Z,1.37
2022-08-31T21:24:13.767Z,1.90
2022-08-31T21:26:40.945Z,1.40
2022-08-31T21:29:12.935Z,1.10
2022-08-31T21:31:48.957Z,1.03
2022-08-31T21:34:23.192Z,1.40
2022-08-31T21:36:50.135Z,1.30
2022-08-31T21:39:19.653Z,1.60
2022-08-31T21:41:47.158Z,1.50
2022-08-31T21:44:16.903Z,1.10
2022-08-31T21:46:49.760Z,1.23
2022-08-31T21:49:17.838Z,1.10
2022-08-31T21:51:55.937Z,1.50
2022-08-31T21:54:23.845Z,1.70
2022-08-31T21:56:53.384Z,1.23
2022-08-31T21:59:21.941Z,1.40
2022-08-31T22:01:48.906Z,1.30
2022-08-31T22:04:16.171Z,1.13
2022-08-31T22:06:43.512Z,1.87
2022-08-31T22:09:13.503Z,1.30
2022-08-31T22:11:43.826Z,1.50
2022-08-31T22:14:11.301Z,1.40
2022-08-31T22:16:39.341Z,1.63
2022-08-31T22:19:13.176Z,1.20
2022-08-31T22:21:42.890Z,1.40
2022-08-31T22:24:12.108Z,1.60
2022-08-31T22:26:53.373Z,1.30
2022-08-31T22:29:23.711Z,1.80
2022-08-31T22:31:52.277Z,1.10
2022-08-31T22:34:20.899Z,1.40
2022-08-31T22:36:50.761Z,1.40
2022-08-31T22:39:20.701Z,1.40
2022-08-31T22:41:47.306Z,1.43
2022-08-31T22:44:17.383Z,1.40
2022-08-31T22:46:45.214Z,1.90
2022-08-31T22:49:13.224Z,1.60
2022-08-31T22:51:40.887Z,1.87
2022-08-31T22:54:08.841Z,1.33
2022-08-31T22:56:37.543Z,1.67
2022-08-31T22:59:08.850Z,1.80
2022-08-31T23:01:46.418Z,1.77
2022-08-31T23:04:19.637Z,1.47
2022-08-31T23:06:47.815Z,1.87
2022-08-31T23:09:15.401Z,1.70
2022-08-31T23:11:41.922Z,1.30
2022-08-31T23:14:10.004Z,1.40
2022-08-31T23:16:45.985Z,1.40
2022-08-31T23:19:19.027Z,1.63
2022-08-31T23:21:52.962Z,1.77
2022-08-31T23:24:51.679Z,1.37
2022-08-31T23:27:21.355Z,2.20
2022-08-31T23:29:51.234Z,1.77
2022-08-31T23:32:21.341Z,1.83
2022-08-31T23:34:50.797Z,2.10
2022-08-31T23:37:17.719Z,1.57
2022-08-31T23:39:45.757Z,2.17
2022-08-31T23:42:14.331Z,1.87
2022-08-31T23:44:43.449Z,2.00
2022-08-31T23:47:13.532Z,1.70
2022-08-31T23:49:42.155Z,1.60
2022-08-31T23:52:08.612Z,1.87
2022-08-31T23:54:37.187Z,1.43
2022-08-31T23:57:04.750Z,1.67
2022-08-31T23:59:32.177Z,1.33
